WZZ84LZ EPGD-EYVI
Flight info
| Callsign | WZZ84LZ |
|---|---|
| Flight time | 0h 46m |
| Altitude | 31000 |
| Route | NIKMI DCT BISWE DCT BOKSU DCT IRKAL |
| Aircraft | A21N/M-SDE1E2E3FGIJ1J4RWXY/LB1 |
Departure
| Time | 2026-05-04 13:57 |
|---|---|
| Airport | Gdańsk Lech Wałęsa Airport (EPGD) |
Arrival
| Time | 2026-05-04 14:43 |
|---|---|
| Airport | Vilnius International Airport (EYVI) |
| Time | Latitude | Longitude | Altitude | Speed | Heading |
|---|---|---|---|---|---|
| 2026-05-04 13:25 | 54.38045 | 18.46711 | 465 ft | 0 kts | 23° |
| 2026-05-04 13:43 | 54.38041 | 18.46708 | 465 ft | 2 kts | 23° |
| 2026-05-04 13:43 | 54.38026 | 18.46697 | 465 ft | 2 kts | 23° |
| 2026-05-04 13:43 | 54.38013 | 18.46687 | 465 ft | 2 kts | 23° |
| 2026-05-04 13:44 | 54.37999 | 18.46677 | 465 ft | 2 kts | 23° |
| 2026-05-04 13:44 | 54.37986 | 18.46663 | 465 ft | 2 kts | 55° |
| 2026-05-04 13:44 | 54.37980 | 18.46640 | 465 ft | 2 kts | 85° |
| 2026-05-04 13:44 | 54.37981 | 18.46619 | 465 ft | 0 kts | 110° |
| 2026-05-04 13:45 | 54.37984 | 18.46608 | 465 ft | 1 kts | 114° |
| 2026-05-04 13:45 | 54.37985 | 18.46608 | 465 ft | 0 kts | 114° |
| 2026-05-04 13:47 | 54.37983 | 18.46613 | 465 ft | 1 kts | 114° |
| 2026-05-04 13:48 | 54.37973 | 18.46652 | 465 ft | 6 kts | 114° |
| 2026-05-04 13:48 | 54.37954 | 18.46723 | 465 ft | 7 kts | 114° |
| 2026-05-04 13:48 | 54.37933 | 18.46805 | 465 ft | 7 kts | 114° |
| 2026-05-04 13:48 | 54.37910 | 18.46897 | 465 ft | 8 kts | 118° |
| 2026-05-04 13:49 | 54.37852 | 18.46984 | 465 ft | 14 kts | 123° |
| 2026-05-04 13:49 | 54.37810 | 18.47141 | 465 ft | 14 kts | 113° |
| 2026-05-04 13:49 | 54.37770 | 18.47298 | 465 ft | 14 kts | 113° |
| 2026-05-04 13:49 | 54.37730 | 18.47463 | 464 ft | 15 kts | 112° |
| 2026-05-04 13:50 | 54.37690 | 18.47624 | 466 ft | 13 kts | 112° |
| 2026-05-04 13:50 | 54.37656 | 18.47761 | 469 ft | 11 kts | 112° |
| 2026-05-04 13:50 | 54.37629 | 18.47869 | 472 ft | 8 kts | 112° |
| 2026-05-04 13:50 | 54.37607 | 18.47960 | 475 ft | 10 kts | 112° |
| 2026-05-04 13:51 | 54.37574 | 18.48091 | 478 ft | 11 kts | 112° |
| 2026-05-04 13:51 | 54.37543 | 18.48218 | 482 ft | 12 kts | 112° |
| 2026-05-04 13:51 | 54.37505 | 18.48369 | 485 ft | 14 kts | 112° |
| 2026-05-04 13:51 | 54.37469 | 18.48518 | 488 ft | 12 kts | 112° |
| 2026-05-04 13:52 | 54.37405 | 18.48779 | 492 ft | 12 kts | 112° |
| 2026-05-04 13:52 | 54.37373 | 18.48912 | 493 ft | 11 kts | 112° |
| 2026-05-04 13:52 | 54.37341 | 18.49037 | 494 ft | 11 kts | 113° |
| 2026-05-04 13:53 | 54.37312 | 18.49152 | 496 ft | 10 kts | 113° |
| 2026-05-04 13:53 | 54.37275 | 18.49244 | 497 ft | 8 kts | 151° |
| 2026-05-04 13:53 | 54.37220 | 18.49248 | 498 ft | 4 kts | 206° |
| 2026-05-04 13:54 | 54.37219 | 18.49247 | 498 ft | 0 kts | 208° |
| 2026-05-04 13:55 | 54.37185 | 18.49205 | 497 ft | 7 kts | 224° |
| 2026-05-04 13:55 | 54.37150 | 18.49127 | 496 ft | 9 kts | 256° |
| 2026-05-04 13:56 | 54.37171 | 18.49009 | 494 ft | 11 kts | 293° |
| 2026-05-04 13:56 | 54.37259 | 18.48655 | 491 ft | 74 kts | 292° |
| 2026-05-04 13:56 | 54.38045 | 18.45492 | 1035 ft | 180 kts | 292° |
| 2026-05-04 13:57 | 54.38504 | 18.43615 | 2230 ft | 173 kts | 292° |
| 2026-05-04 13:57 | 54.38953 | 18.41810 | 3210 ft | 170 kts | 289° |
| 2026-05-04 13:58 | 54.40521 | 18.35365 | 4635 ft | 224 kts | 289° |
| 2026-05-04 13:58 | 54.41641 | 18.30475 | 6497 ft | 219 kts | 275° |
| 2026-05-04 13:58 | 54.41517 | 18.27938 | 7293 ft | 218 kts | 248° |
| 2026-05-04 13:59 | 54.40689 | 18.25826 | 8074 ft | 223 kts | 223° |
| 2026-05-04 13:59 | 54.39337 | 18.24486 | 8878 ft | 229 kts | 207° |
| 2026-05-04 13:59 | 54.36235 | 18.23275 | 10396 ft | 248 kts | 175° |
| 2026-05-04 14:00 | 54.34647 | 18.24474 | 11123 ft | 265 kts | 148° |
| 2026-05-04 14:00 | 54.32599 | 18.30394 | 11927 ft | 315 kts | 117° |
| 2026-05-04 14:00 | 54.31797 | 18.33987 | 12520 ft | 325 kts | 115° |
| 2026-05-04 14:01 | 54.31104 | 18.37728 | 13203 ft | 332 kts | 110° |
| 2026-05-04 14:01 | 54.30537 | 18.41573 | 13573 ft | 348 kts | 108° |
| 2026-05-04 14:01 | 54.29390 | 18.49961 | 14522 ft | 370 kts | 107° |
| 2026-05-04 14:02 | 54.28802 | 18.54247 | 15182 ft | 373 kts | 107° |
| 2026-05-04 14:02 | 54.28200 | 18.58560 | 15788 ft | 378 kts | 107° |
| 2026-05-04 14:02 | 54.27575 | 18.62998 | 16369 ft | 383 kts | 107° |
| 2026-05-04 14:02 | 54.26943 | 18.67456 | 16962 ft | 388 kts | 108° |
| 2026-05-04 14:03 | 54.26304 | 18.71948 | 17551 ft | 391 kts | 108° |
| 2026-05-04 14:03 | 54.25653 | 18.76494 | 18116 ft | 395 kts | 108° |
| 2026-05-04 14:03 | 54.24999 | 18.81051 | 18668 ft | 398 kts | 108° |
| 2026-05-04 14:03 | 54.24329 | 18.85697 | 19231 ft | 401 kts | 108° |
| 2026-05-04 14:04 | 54.22986 | 18.94981 | 20303 ft | 407 kts | 108° |
| 2026-05-04 14:04 | 54.22304 | 18.99667 | 20813 ft | 410 kts | 108° |
| 2026-05-04 14:04 | 54.21614 | 19.04389 | 21332 ft | 413 kts | 108° |
| 2026-05-04 14:05 | 54.20307 | 19.14031 | 22309 ft | 420 kts | 103° |
| 2026-05-04 14:05 | 54.19891 | 19.18936 | 22778 ft | 424 kts | 99° |
| 2026-05-04 14:05 | 54.19613 | 19.23998 | 23244 ft | 427 kts | 97° |
| 2026-05-04 14:06 | 54.19366 | 19.29048 | 23705 ft | 430 kts | 97° |
| 2026-05-04 14:06 | 54.19115 | 19.34204 | 24157 ft | 432 kts | 97° |
| 2026-05-04 14:06 | 54.18861 | 19.39331 | 24613 ft | 434 kts | 97° |
| 2026-05-04 14:06 | 54.18602 | 19.44452 | 25088 ft | 435 kts | 97° |
| 2026-05-04 14:07 | 54.18334 | 19.49641 | 25539 ft | 437 kts | 97° |
| 2026-05-04 14:07 | 54.18064 | 19.54791 | 25951 ft | 439 kts | 97° |
| 2026-05-04 14:07 | 54.17788 | 19.59999 | 26364 ft | 441 kts | 97° |
| 2026-05-04 14:07 | 54.17509 | 19.65205 | 26766 ft | 443 kts | 98° |
| 2026-05-04 14:08 | 54.17226 | 19.70439 | 27148 ft | 444 kts | 98° |
| 2026-05-04 14:08 | 54.16939 | 19.75694 | 27532 ft | 446 kts | 98° |
| 2026-05-04 14:08 | 54.16650 | 19.80949 | 27979 ft | 446 kts | 98° |
| 2026-05-04 14:08 | 54.16359 | 19.86234 | 28490 ft | 444 kts | 99° |
| 2026-05-04 14:09 | 54.15770 | 19.96713 | 29448 ft | 441 kts | 99° |
| 2026-05-04 14:09 | 54.15474 | 20.01918 | 29832 ft | 442 kts | 99° |
| 2026-05-04 14:10 | 54.14867 | 20.12412 | 30537 ft | 446 kts | 99° |
| 2026-05-04 14:10 | 54.14560 | 20.17665 | 30846 ft | 448 kts | 99° |
| 2026-05-04 14:10 | 54.14246 | 20.22996 | 30900 ft | 450 kts | 99° |
| 2026-05-04 14:11 | 54.13614 | 20.33679 | 30904 ft | 450 kts | 99° |
| 2026-05-04 14:11 | 54.12651 | 20.49601 | 30905 ft | 451 kts | 99° |
| 2026-05-04 14:12 | 54.11996 | 20.60228 | 30905 ft | 451 kts | 99° |
| 2026-05-04 14:13 | 54.10991 | 20.76193 | 30904 ft | 450 kts | 100° |
| 2026-05-04 14:13 | 54.10486 | 20.86782 | 30904 ft | 453 kts | 94° |
| 2026-05-04 14:14 | 54.10841 | 20.97532 | 30904 ft | 456 kts | 84° |
| 2026-05-04 14:14 | 54.12757 | 21.13331 | 30905 ft | 456 kts | 79° |
| 2026-05-04 14:15 | 54.15502 | 21.34362 | 30905 ft | 454 kts | 79° |
| 2026-05-04 14:16 | 54.17514 | 21.50228 | 30905 ft | 453 kts | 79° |
| 2026-05-04 14:17 | 54.19483 | 21.65965 | 30905 ft | 452 kts | 80° |
| 2026-05-04 14:18 | 54.21428 | 21.81685 | 30904 ft | 450 kts | 80° |
| 2026-05-04 14:19 | 54.23984 | 22.02622 | 30905 ft | 450 kts | 80° |
| 2026-05-04 14:19 | 54.25242 | 22.13047 | 30905 ft | 449 kts | 80° |
| 2026-05-04 14:20 | 54.26491 | 22.23480 | 30905 ft | 450 kts | 80° |
| 2026-05-04 14:20 | 54.27747 | 22.34052 | 30905 ft | 450 kts | 80° |
| 2026-05-04 14:21 | 54.29592 | 22.49745 | 30893 ft | 450 kts | 80° |
| 2026-05-04 14:21 | 54.30814 | 22.60231 | 30875 ft | 450 kts | 80° |
| 2026-05-04 14:22 | 54.32031 | 22.70768 | 30860 ft | 450 kts | 81° |
| 2026-05-04 14:22 | 54.33236 | 22.81294 | 30853 ft | 450 kts | 81° |
| 2026-05-04 14:23 | 54.35012 | 22.96961 | 30208 ft | 450 kts | 81° |
| 2026-05-04 14:23 | 54.35600 | 23.02207 | 29214 ft | 459 kts | 81° |
| 2026-05-04 14:24 | 54.36205 | 23.07627 | 28392 ft | 463 kts | 81° |
| 2026-05-04 14:24 | 54.36802 | 23.12989 | 27713 ft | 463 kts | 80° |
| 2026-05-04 14:24 | 54.37408 | 23.18440 | 27001 ft | 463 kts | 80° |
| 2026-05-04 14:24 | 54.38003 | 23.23821 | 26404 ft | 460 kts | 80° |
| 2026-05-04 14:25 | 54.38592 | 23.29159 | 25902 ft | 455 kts | 80° |
| 2026-05-04 14:25 | 54.39742 | 23.39671 | 24840 ft | 447 kts | 80° |
| 2026-05-04 14:25 | 54.40314 | 23.44934 | 24298 ft | 443 kts | 80° |
| 2026-05-04 14:26 | 54.40871 | 23.50077 | 23756 ft | 440 kts | 80° |
| 2026-05-04 14:26 | 54.41419 | 23.55166 | 23219 ft | 436 kts | 80° |
| 2026-05-04 14:26 | 54.41970 | 23.60288 | 22684 ft | 433 kts | 80° |
| 2026-05-04 14:26 | 54.42509 | 23.65341 | 22144 ft | 430 kts | 81° |
| 2026-05-04 14:27 | 54.43048 | 23.70396 | 21596 ft | 427 kts | 81° |
| 2026-05-04 14:27 | 54.43545 | 23.75087 | 21096 ft | 424 kts | 81° |
| 2026-05-04 14:27 | 54.44041 | 23.79798 | 20592 ft | 421 kts | 81° |
| 2026-05-04 14:27 | 54.44570 | 23.84848 | 20045 ft | 418 kts | 81° |
| 2026-05-04 14:28 | 54.45080 | 23.89723 | 19497 ft | 416 kts | 81° |
| 2026-05-04 14:28 | 54.45589 | 23.94612 | 18950 ft | 414 kts | 81° |
| 2026-05-04 14:28 | 54.46095 | 23.99488 | 18415 ft | 411 kts | 81° |
| 2026-05-04 14:28 | 54.46588 | 24.04274 | 17884 ft | 409 kts | 81° |
| 2026-05-04 14:29 | 54.47566 | 24.13815 | 16883 ft | 402 kts | 81° |
| 2026-05-04 14:29 | 54.48895 | 24.23057 | 15855 ft | 397 kts | 66° |
| 2026-05-04 14:30 | 54.50168 | 24.27217 | 15370 ft | 393 kts | 58° |
| 2026-05-04 14:30 | 54.51616 | 24.31235 | 14866 ft | 390 kts | 56° |
| 2026-05-04 14:30 | 54.54434 | 24.38859 | 13949 ft | 371 kts | 56° |
| 2026-05-04 14:31 | 54.55804 | 24.42615 | 13390 ft | 365 kts | 57° |
| 2026-05-04 14:31 | 54.58423 | 24.49886 | 12345 ft | 352 kts | 57° |
| 2026-05-04 14:32 | 54.60927 | 24.56904 | 11323 ft | 340 kts | 57° |
| 2026-05-04 14:32 | 54.62151 | 24.60343 | 10908 ft | 331 kts | 57° |
| 2026-05-04 14:32 | 54.63334 | 24.63676 | 10515 ft | 323 kts | 57° |
| 2026-05-04 14:32 | 54.64496 | 24.66965 | 10154 ft | 314 kts | 58° |
| 2026-05-04 14:33 | 54.65608 | 24.70109 | 10028 ft | 296 kts | 58° |
| 2026-05-04 14:33 | 54.66663 | 24.73095 | 9915 ft | 291 kts | 58° |
| 2026-05-04 14:33 | 54.67720 | 24.76095 | 9706 ft | 289 kts | 58° |
| 2026-05-04 14:33 | 54.68757 | 24.79033 | 9367 ft | 288 kts | 58° |
| 2026-05-04 14:34 | 54.69794 | 24.81982 | 9034 ft | 285 kts | 57° |
| 2026-05-04 14:34 | 54.70815 | 24.84879 | 8710 ft | 283 kts | 58° |
| 2026-05-04 14:34 | 54.71833 | 24.87773 | 8386 ft | 281 kts | 58° |
| 2026-05-04 14:34 | 54.72852 | 24.90660 | 8064 ft | 279 kts | 58° |
| 2026-05-04 14:35 | 54.73856 | 24.93527 | 7741 ft | 277 kts | 58° |
| 2026-05-04 14:35 | 54.74844 | 24.96360 | 7421 ft | 275 kts | 57° |
| 2026-05-04 14:35 | 54.75836 | 24.99199 | 7092 ft | 274 kts | 57° |
| 2026-05-04 14:35 | 54.76820 | 25.01979 | 6777 ft | 272 kts | 58° |
| 2026-05-04 14:36 | 54.77791 | 25.04771 | 6465 ft | 270 kts | 58° |
| 2026-05-04 14:36 | 54.78753 | 25.07519 | 6153 ft | 268 kts | 59° |
| 2026-05-04 14:36 | 54.79711 | 25.10288 | 5845 ft | 266 kts | 58° |
| 2026-05-04 14:36 | 54.80661 | 25.13033 | 5520 ft | 265 kts | 57° |
| 2026-05-04 14:37 | 54.81612 | 25.15744 | 5250 ft | 261 kts | 59° |
| 2026-05-04 14:37 | 54.82540 | 25.18386 | 5193 ft | 258 kts | 60° |
| 2026-05-04 14:37 | 54.83458 | 25.21096 | 5090 ft | 258 kts | 57° |
| 2026-05-04 14:37 | 54.84333 | 25.23789 | 4790 ft | 258 kts | 68° |
| 2026-05-04 14:38 | 54.84523 | 25.26786 | 4464 ft | 248 kts | 107° |
| 2026-05-04 14:38 | 54.83959 | 25.29534 | 4171 ft | 241 kts | 120° |
| 2026-05-04 14:38 | 54.83235 | 25.32146 | 3880 ft | 238 kts | 121° |
| 2026-05-04 14:38 | 54.82533 | 25.34740 | 3571 ft | 237 kts | 119° |
| 2026-05-04 14:39 | 54.81860 | 25.37345 | 3263 ft | 236 kts | 121° |
| 2026-05-04 14:39 | 54.80815 | 25.39387 | 2998 ft | 222 kts | 157° |
| 2026-05-04 14:39 | 54.79429 | 25.39979 | 2993 ft | 199 kts | 192° |
| 2026-05-04 14:40 | 54.76983 | 25.38231 | 3066 ft | 179 kts | 210° |
| 2026-05-04 14:40 | 54.75925 | 25.37333 | 3020 ft | 162 kts | 209° |
| 2026-05-04 14:40 | 54.74942 | 25.36579 | 2843 ft | 152 kts | 207° |
| 2026-05-04 14:40 | 54.73973 | 25.35883 | 2658 ft | 149 kts | 207° |
| 2026-05-04 14:41 | 54.73007 | 25.35208 | 2463 ft | 150 kts | 206° |
| 2026-05-04 14:41 | 54.72038 | 25.34541 | 2251 ft | 149 kts | 206° |
| 2026-05-04 14:41 | 54.70125 | 25.33224 | 1833 ft | 147 kts | 206° |
| 2026-05-04 14:42 | 54.68233 | 25.31919 | 1459 ft | 146 kts | 206° |
| 2026-05-04 14:42 | 54.67299 | 25.31273 | 1271 ft | 146 kts | 206° |
| 2026-05-04 14:42 | 54.66351 | 25.30617 | 1074 ft | 145 kts | 206° |
| 2026-05-04 14:43 | 54.65414 | 25.29971 | 880 ft | 143 kts | 206° |
| 2026-05-04 14:43 | 54.64516 | 25.29343 | 687 ft | 140 kts | 206° |
| 2026-05-04 14:43 | 54.63658 | 25.28741 | 614 ft | 117 kts | 202° |
| 2026-05-04 14:43 | 54.63086 | 25.28355 | 591 ft | 49 kts | 199° |
| 2026-05-04 14:44 | 54.62976 | 25.28109 | 590 ft | 23 kts | 289° |
| 2026-05-04 14:44 | 54.63064 | 25.28041 | 593 ft | 13 kts | 17° |
| 2026-05-04 14:44 | 54.63148 | 25.28089 | 594 ft | 12 kts | 20° |
| 2026-05-04 14:44 | 54.63240 | 25.28152 | 596 ft | 13 kts | 21° |
| 2026-05-04 14:45 | 54.63327 | 25.28213 | 598 ft | 14 kts | 21° |
| 2026-05-04 14:45 | 54.63425 | 25.28281 | 600 ft | 15 kts | 22° |
| 2026-05-04 14:45 | 54.63525 | 25.28352 | 604 ft | 15 kts | 21° |
| 2026-05-04 14:45 | 54.63626 | 25.28420 | 608 ft | 15 kts | 21° |
| 2026-05-04 14:46 | 54.63729 | 25.28489 | 612 ft | 15 kts | 21° |
| 2026-05-04 14:46 | 54.63814 | 25.28549 | 616 ft | 11 kts | 21° |
| 2026-05-04 14:46 | 54.63876 | 25.28593 | 620 ft | 8 kts | 23° |
| 2026-05-04 14:46 | 54.63940 | 25.28641 | 623 ft | 13 kts | 22° |
| 2026-05-04 14:47 | 54.64029 | 25.28702 | 627 ft | 12 kts | 16° |
| 2026-05-04 14:47 | 54.64104 | 25.28699 | 630 ft | 9 kts | 354° |
| 2026-05-04 14:47 | 54.64173 | 25.28687 | 632 ft | 11 kts | 353° |
| 2026-05-04 14:47 | 54.64256 | 25.28672 | 634 ft | 11 kts | 354° |
| 2026-05-04 14:48 | 54.64332 | 25.28658 | 635 ft | 10 kts | 352° |
| 2026-05-04 14:48 | 54.64407 | 25.28640 | 635 ft | 11 kts | 351° |
| 2026-05-04 14:48 | 54.64487 | 25.28619 | 634 ft | 11 kts | 348° |
| 2026-05-04 14:48 | 54.64500 | 25.28509 | 632 ft | 12 kts | 256° |
| 2026-05-04 14:49 | 54.64486 | 25.28273 | 628 ft | 9 kts | 290° |
| 2026-05-04 14:49 | 54.64491 | 25.28175 | 626 ft | 0 kts | 269° |